sensor_id;sensor_type;location;lat;lon;timestamp;P1;durP1;ratioP1;P2;durP2;ratioP2
19891;SDS011;10108;50.142;8.724;2022-09-03T00:00:59;18.17;;;5.38;;
19891;SDS011;10108;50.142;8.724;2022-09-03T00:04:02;5.95;;;4.85;;
19891;SDS011;10108;50.142;8.724;2022-09-03T00:06:23;7.65;;;4.80;;
19891;SDS011;10108;50.142;8.724;2022-09-03T00:08:57;5.75;;;4.82;;
19891;SDS011;10108;50.142;8.724;2022-09-03T00:14:22;7.10;;;5.20;;
19891;SDS011;10108;50.142;8.724;2022-09-03T00:22:28;5.93;;;5.18;;
19891;SDS011;10108;50.142;8.724;2022-09-03T00:25:02;6.47;;;5.00;;
19891;SDS011;10108;50.142;8.724;2022-09-03T00:27:32;7.50;;;5.03;;
19891;SDS011;10108;50.142;8.724;2022-09-03T00:30:05;5.30;;;4.80;;
19891;SDS011;10108;50.142;8.724;2022-09-03T00:32:38;5.50;;;5.00;;
19891;SDS011;10108;50.142;8.724;2022-09-03T00:35:13;8.98;;;5.30;;
19891;SDS011;10108;50.142;8.724;2022-09-03T00:37:45;5.55;;;4.93;;
19891;SDS011;10108;50.142;8.724;2022-09-03T00:40:55;6.43;;;5.13;;
19891;SDS011;10108;50.142;8.724;2022-09-03T00:46:03;8.10;;;5.40;;
19891;SDS011;10108;50.142;8.724;2022-09-03T00:48:48;6.38;;;5.10;;
19891;SDS011;10108;50.142;8.724;2022-09-03T00:51:41;6.15;;;5.10;;
19891;SDS011;10108;50.142;8.724;2022-09-03T01:02:55;8.65;;;5.50;;
19891;SDS011;10108;50.142;8.724;2022-09-03T01:11:20;7.68;;;5.00;;
19891;SDS011;10108;50.142;8.724;2022-09-03T01:30:12;6.13;;;5.38;;
19891;SDS011;10108;50.142;8.724;2022-09-03T01:40:49;6.80;;;5.20;;
19891;SDS011;10108;50.142;8.724;2022-09-03T01:46:22;7.18;;;5.40;;
19891;SDS011;10108;50.142;8.724;2022-09-03T01:49:01;10.15;;;5.40;;
19891;SDS011;10108;50.142;8.724;2022-09-03T01:51:49;7.43;;;5.35;;
19891;SDS011;10108;50.142;8.724;2022-09-03T01:54:26;6.20;;;5.28;;
19891;SDS011;10108;50.142;8.724;2022-09-03T01:59:56;7.80;;;5.20;;
19891;SDS011;10108;50.142;8.724;2022-09-03T02:02:37;8.93;;;5.30;;
19891;SDS011;10108;50.142;8.724;2022-09-03T02:07:47;5.90;;;5.30;;
19891;SDS011;10108;50.142;8.724;2022-09-03T02:10:33;7.40;;;5.30;;
19891;SDS011;10108;50.142;8.724;2022-09-03T02:13:07;7.07;;;5.28;;
19891;SDS011;10108;50.142;8.724;2022-09-03T02:15:37;5.90;;;5.30;;
19891;SDS011;10108;50.142;8.724;2022-09-03T02:18:07;6.90;;;5.50;;
19891;SDS011;10108;50.142;8.724;2022-09-03T02:20:38;6.10;;;5.45;;
19891;SDS011;10108;50.142;8.724;2022-09-03T02:23:04;6.63;;;5.30;;
19891;SDS011;10108;50.142;8.724;2022-09-03T02:25:34;9.13;;;5.65;;
19891;SDS011;10108;50.142;8.724;2022-09-03T02:28:04;7.20;;;5.30;;
19891;SDS011;10108;50.142;8.724;2022-09-03T02:30:32;6.70;;;5.30;;
19891;SDS011;10108;50.142;8.724;2022-09-03T02:32:58;6.70;;;5.30;;
19891;SDS011;10108;50.142;8.724;2022-09-03T02:35:24;6.57;;;5.43;;
19891;SDS011;10108;50.142;8.724;2022-09-03T02:37:51;7.28;;;5.38;;
19891;SDS011;10108;50.142;8.724;2022-09-03T02:40:17;7.18;;;5.50;;
19891;SDS011;10108;50.142;8.724;2022-09-03T02:42:43;8.18;;;5.40;;
19891;SDS011;10108;50.142;8.724;2022-09-03T02:45:18;6.85;;;5.20;;
19891;SDS011;10108;50.142;8.724;2022-09-03T02:47:54;7.28;;;5.53;;
19891;SDS011;10108;50.142;8.724;2022-09-03T02:50:22;6.57;;;5.30;;
19891;SDS011;10108;50.142;8.724;2022-09-03T02:52:49;7.10;;;5.25;;
19891;SDS011;10108;50.142;8.724;2022-09-03T02:55:17;6.43;;;5.20;;
19891;SDS011;10108;50.142;8.724;2022-09-03T02:57:44;6.80;;;5.68;;
19891;SDS011;10108;50.142;8.724;2022-09-03T03:00:11;8.93;;;5.38;;
19891;SDS011;10108;50.142;8.724;2022-09-03T03:02:38;6.13;;;5.13;;
19891;SDS011;10108;50.142;8.724;2022-09-03T03:05:04;5.85;;;5.10;;
19891;SDS011;10108;50.142;8.724;2022-09-03T03:07:33;5.80;;;5.20;;
19891;SDS011;10108;50.142;8.724;2022-09-03T03:10:02;8.18;;;5.20;;
19891;SDS011;10108;50.142;8.724;2022-09-03T03:12:29;7.75;;;5.30;;
19891;SDS011;10108;50.142;8.724;2022-09-03T03:14:55;8.13;;;5.35;;
19891;SDS011;10108;50.142;8.724;2022-09-03T03:17:21;6.55;;;5.55;;
19891;SDS011;10108;50.142;8.724;2022-09-03T03:19:47;6.20;;;5.32;;
19891;SDS011;10108;50.142;8.724;2022-09-03T03:22:13;8.57;;;5.10;;
19891;SDS011;10108;50.142;8.724;2022-09-03T03:24:39;6.45;;;5.40;;
19891;SDS011;10108;50.142;8.724;2022-09-03T03:27:05;6.70;;;5.38;;
19891;SDS011;10108;50.142;8.724;2022-09-03T03:29:35;6.68;;;5.30;;
19891;SDS011;10108;50.142;8.724;2022-09-03T03:32:01;7.75;;;5.50;;
19891;SDS011;10108;50.142;8.724;2022-09-03T03:34:27;9.77;;;5.40;;
19891;SDS011;10108;50.142;8.724;2022-09-03T03:36:53;7.47;;;5.40;;
19891;SDS011;10108;50.142;8.724;2022-09-03T03:39:20;5.80;;;5.20;;
19891;SDS011;10108;50.142;8.724;2022-09-03T03:41:46;8.25;;;5.30;;
19891;SDS011;10108;50.142;8.724;2022-09-03T03:44:12;6.00;;;5.20;;
19891;SDS011;10108;50.142;8.724;2022-09-03T03:46:39;6.40;;;5.50;;
19891;SDS011;10108;50.142;8.724;2022-09-03T03:49:06;6.93;;;5.50;;
19891;SDS011;10108;50.142;8.724;2022-09-03T03:51:34;6.80;;;5.47;;
19891;SDS011;10108;50.142;8.724;2022-09-03T03:54:00;10.82;;;5.50;;
19891;SDS011;10108;50.142;8.724;2022-09-03T03:56:27;8.20;;;5.25;;
19891;SDS011;10108;50.142;8.724;2022-09-03T03:58:53;6.63;;;5.40;;
19891;SDS011;10108;50.142;8.724;2022-09-03T04:01:20;7.10;;;5.30;;
19891;SDS011;10108;50.142;8.724;2022-09-03T04:03:48;6.68;;;5.35;;
19891;SDS011;10108;50.142;8.724;2022-09-03T04:06:16;7.30;;;5.63;;
19891;SDS011;10108;50.142;8.724;2022-09-03T04:08:44;6.35;;;5.20;;
19891;SDS011;10108;50.142;8.724;2022-09-03T04:11:13;6.25;;;5.20;;
19891;SDS011;10108;50.142;8.724;2022-09-03T04:13:42;6.30;;;5.15;;
19891;SDS011;10108;50.142;8.724;2022-09-03T04:16:10;6.80;;;5.45;;
19891;SDS011;10108;50.142;8.724;2022-09-03T04:18:38;8.70;;;5.45;;
19891;SDS011;10108;50.142;8.724;2022-09-03T04:21:06;6.80;;;5.30;;
19891;SDS011;10108;50.142;8.724;2022-09-03T04:23:35;6.72;;;5.40;;
19891;SDS011;10108;50.142;8.724;2022-09-03T04:26:03;6.80;;;5.72;;
19891;SDS011;10108;50.142;8.724;2022-09-03T04:28:30;6.80;;;5.43;;
19891;SDS011;10108;50.142;8.724;2022-09-03T04:31:03;6.18;;;5.57;;
19891;SDS011;10108;50.142;8.724;2022-09-03T04:33:31;8.00;;;5.47;;
19891;SDS011;10108;50.142;8.724;2022-09-03T04:36:04;6.93;;;5.47;;
19891;SDS011;10108;50.142;8.724;2022-09-03T04:38:36;6.65;;;5.70;;
19891;SDS011;10108;50.142;8.724;2022-09-03T04:41:04;5.95;;;5.20;;
19891;SDS011;10108;50.142;8.724;2022-09-03T04:43:32;6.72;;;5.63;;
19891;SDS011;10108;50.142;8.724;2022-09-03T04:45:58;6.13;;;5.53;;
19891;SDS011;10108;50.142;8.724;2022-09-03T04:48:26;9.23;;;5.60;;
19891;SDS011;10108;50.142;8.724;2022-09-03T04:50:54;6.55;;;5.60;;
19891;SDS011;10108;50.142;8.724;2022-09-03T04:53:30;7.03;;;5.50;;
19891;SDS011;10108;50.142;8.724;2022-09-03T04:56:00;6.18;;;5.40;;
19891;SDS011;10108;50.142;8.724;2022-09-03T04:58:26;6.78;;;5.47;;
19891;SDS011;10108;50.142;8.724;2022-09-03T05:00:52;9.07;;;6.07;;
19891;SDS011;10108;50.142;8.724;2022-09-03T05:03:19;8.30;;;5.60;;
19891;SDS011;10108;50.142;8.724;2022-09-03T05:05:53;7.28;;;5.63;;
19891;SDS011;10108;50.142;8.724;2022-09-03T05:08:20;7.07;;;5.90;;
19891;SDS011;10108;50.142;8.724;2022-09-03T05:10:47;6.85;;;5.70;;
19891;SDS011;10108;50.142;8.724;2022-09-03T05:13:14;7.40;;;5.82;;
19891;SDS011;10108;50.142;8.724;2022-09-03T05:15:40;6.95;;;5.60;;
19891;SDS011;10108;50.142;8.724;2022-09-03T05:18:08;8.60;;;5.97;;
19891;SDS011;10108;50.142;8.724;2022-09-03T05:20:34;7.10;;;5.75;;
19891;SDS011;10108;50.142;8.724;2022-09-03T05:23:01;6.25;;;5.65;;
19891;SDS011;10108;50.142;8.724;2022-09-03T05:25:31;7.63;;;5.90;;
19891;SDS011;10108;50.142;8.724;2022-09-03T05:27:57;9.68;;;5.93;;
19891;SDS011;10108;50.142;8.724;2022-09-03T05:30:24;7.22;;;5.80;;
19891;SDS011;10108;50.142;8.724;2022-09-03T05:32:50;8.00;;;5.80;;
19891;SDS011;10108;50.142;8.724;2022-09-03T05:35:16;6.53;;;5.65;;
19891;SDS011;10108;50.142;8.724;2022-09-03T05:37:43;7.65;;;5.70;;
19891;SDS011;10108;50.142;8.724;2022-09-03T05:40:09;7.70;;;5.75;;
19891;SDS011;10108;50.142;8.724;2022-09-03T05:42:36;8.10;;;6.20;;
19891;SDS011;10108;50.142;8.724;2022-09-03T05:45:07;6.82;;;6.00;;
19891;SDS011;10108;50.142;8.724;2022-09-03T05:47:36;8.23;;;6.20;;
19891;SDS011;10108;50.142;8.724;2022-09-03T05:50:07;9.57;;;6.15;;
19891;SDS011;10108;50.142;8.724;2022-09-03T05:52:35;6.72;;;5.93;;
19891;SDS011;10108;50.142;8.724;2022-09-03T05:55:02;9.25;;;6.05;;
19891;SDS011;10108;50.142;8.724;2022-09-03T05:57:29;8.95;;;5.80;;
19891;SDS011;10108;50.142;8.724;2022-09-03T05:59:55;8.88;;;5.70;;
19891;SDS011;10108;50.142;8.724;2022-09-03T06:02:21;8.38;;;5.95;;
19891;SDS011;10108;50.142;8.724;2022-09-03T06:04:48;9.38;;;6.15;;
19891;SDS011;10108;50.142;8.724;2022-09-03T06:07:15;7.15;;;6.10;;
19891;SDS011;10108;50.142;8.724;2022-09-03T06:09:41;8.35;;;6.47;;
19891;SDS011;10108;50.142;8.724;2022-09-03T06:12:08;8.85;;;6.20;;
19891;SDS011;10108;50.142;8.724;2022-09-03T06:14:34;9.30;;;6.05;;
19891;SDS011;10108;50.142;8.724;2022-09-03T06:17:00;7.30;;;6.38;;
19891;SDS011;10108;50.142;8.724;2022-09-03T06:19:26;8.98;;;6.05;;
19891;SDS011;10108;50.142;8.724;2022-09-03T06:21:53;7.60;;;6.20;;
19891;SDS011;10108;50.142;8.724;2022-09-03T06:24:20;8.85;;;6.10;;
19891;SDS011;10108;50.142;8.724;2022-09-03T06:26:51;7.80;;;6.28;;
19891;SDS011;10108;50.142;8.724;2022-09-03T06:29:17;7.13;;;6.00;;
19891;SDS011;10108;50.142;8.724;2022-09-03T06:31:44;9.32;;;6.45;;
19891;SDS011;10108;50.142;8.724;2022-09-03T06:34:13;7.75;;;6.20;;
19891;SDS011;10108;50.142;8.724;2022-09-03T06:36:39;7.35;;;6.13;;
19891;SDS011;10108;50.142;8.724;2022-09-03T06:39:05;8.85;;;6.30;;
19891;SDS011;10108;50.142;8.724;2022-09-03T06:41:31;9.43;;;6.18;;
19891;SDS011;10108;50.142;8.724;2022-09-03T06:44:00;8.15;;;6.13;;
19891;SDS011;10108;50.142;8.724;2022-09-03T06:46:32;8.88;;;6.47;;
19891;SDS011;10108;50.142;8.724;2022-09-03T06:49:00;9.57;;;6.30;;
19891;SDS011;10108;50.142;8.724;2022-09-03T06:51:27;10.65;;;6.22;;
19891;SDS011;10108;50.142;8.724;2022-09-03T06:54:04;8.85;;;5.80;;
19891;SDS011;10108;50.142;8.724;2022-09-03T06:56:32;9.43;;;5.85;;
19891;SDS011;10108;50.142;8.724;2022-09-03T06:59:02;9.40;;;5.85;;
19891;SDS011;10108;50.142;8.724;2022-09-03T07:01:30;9.35;;;6.20;;
19891;SDS011;10108;50.142;8.724;2022-09-03T07:03:58;8.75;;;6.00;;
19891;SDS011;10108;50.142;8.724;2022-09-03T07:06:26;7.35;;;5.80;;
19891;SDS011;10108;50.142;8.724;2022-09-03T07:08:54;6.95;;;5.80;;
19891;SDS011;10108;50.142;8.724;2022-09-03T07:11:23;7.97;;;5.97;;
19891;SDS011;10108;50.142;8.724;2022-09-03T07:13:51;11.25;;;6.10;;
19891;SDS011;10108;50.142;8.724;2022-09-03T07:16:19;10.02;;;6.35;;
19891;SDS011;10108;50.142;8.724;2022-09-03T07:18:47;7.32;;;5.97;;
19891;SDS011;10108;50.142;8.724;2022-09-03T07:21:18;13.05;;;6.18;;
19891;SDS011;10108;50.142;8.724;2022-09-03T07:23:46;10.35;;;6.60;;
19891;SDS011;10108;50.142;8.724;2022-09-03T07:26:16;8.00;;;6.47;;
19891;SDS011;10108;50.142;8.724;2022-09-03T07:28:44;10.65;;;6.07;;
19891;SDS011;10108;50.142;8.724;2022-09-03T07:31:14;6.78;;;6.07;;
19891;SDS011;10108;50.142;8.724;2022-09-03T07:33:43;10.63;;;6.43;;
19891;SDS011;10108;50.142;8.724;2022-09-03T07:36:10;7.22;;;5.82;;
19891;SDS011;10108;50.142;8.724;2022-09-03T07:38:38;8.52;;;6.07;;
19891;SDS011;10108;50.142;8.724;2022-09-03T07:41:07;8.02;;;6.40;;
19891;SDS011;10108;50.142;8.724;2022-09-03T07:43:35;9.18;;;6.65;;
19891;SDS011;10108;50.142;8.724;2022-09-03T07:46:05;8.88;;;6.32;;
19891;SDS011;10108;50.142;8.724;2022-09-03T07:48:33;9.43;;;6.30;;
19891;SDS011;10108;50.142;8.724;2022-09-03T07:50:59;11.55;;;6.03;;
19891;SDS011;10108;50.142;8.724;2022-09-03T07:53:26;7.90;;;6.28;;
19891;SDS011;10108;50.142;8.724;2022-09-03T07:55:54;10.20;;;6.28;;
19891;SDS011;10108;50.142;8.724;2022-09-03T07:58:29;8.40;;;6.30;;
19891;SDS011;10108;50.142;8.724;2022-09-03T08:00:56;7.80;;;6.10;;
19891;SDS011;10108;50.142;8.724;2022-09-03T08:03:22;10.40;;;6.30;;
19891;SDS011;10108;50.142;8.724;2022-09-03T08:05:49;8.43;;;6.60;;
19891;SDS011;10108;50.142;8.724;2022-09-03T08:08:15;9.57;;;6.38;;
19891;SDS011;10108;50.142;8.724;2022-09-03T08:10:42;8.27;;;6.05;;
19891;SDS011;10108;50.142;8.724;2022-09-03T08:13:09;6.20;;;5.45;;
19891;SDS011;10108;50.142;8.724;2022-09-03T08:15:36;8.50;;;5.78;;
19891;SDS011;10108;50.142;8.724;2022-09-03T08:18:04;8.38;;;6.10;;
19891;SDS011;10108;50.142;8.724;2022-09-03T08:20:30;7.85;;;5.63;;
19891;SDS011;10108;50.142;8.724;2022-09-03T08:23:00;9.30;;;5.90;;
19891;SDS011;10108;50.142;8.724;2022-09-03T08:25:27;9.88;;;6.35;;
19891;SDS011;10108;50.142;8.724;2022-09-03T08:27:56;9.48;;;6.93;;
19891;SDS011;10108;50.142;8.724;2022-09-03T08:30:23;10.32;;;7.35;;
19891;SDS011;10108;50.142;8.724;2022-09-03T08:32:49;9.45;;;6.88;;
19891;SDS011;10108;50.142;8.724;2022-09-03T08:35:16;10.50;;;7.03;;
19891;SDS011;10108;50.142;8.724;2022-09-03T08:37:42;8.65;;;7.50;;
19891;SDS011;10108;50.142;8.724;2022-09-03T08:40:08;11.50;;;8.02;;
19891;SDS011;10108;50.142;8.724;2022-09-03T08:45:20;15.43;;;13.80;;
19891;SDS011;10108;50.142;8.724;2022-09-03T08:47:50;17.45;;;15.85;;
19891;SDS011;10108;50.142;8.724;2022-09-03T08:50:42;21.02;;;19.13;;
19891;SDS011;10108;50.142;8.724;2022-09-03T08:53:15;22.23;;;19.95;;
19891;SDS011;10108;50.142;8.724;2022-09-03T08:55:50;24.00;;;21.70;;
19891;SDS011;10108;50.142;8.724;2022-09-03T08:58:27;24.63;;;22.45;;
19891;SDS011;10108;50.142;8.724;2022-09-03T09:06:49;22.88;;;20.88;;
19891;SDS011;10108;50.142;8.724;2022-09-03T09:09:26;23.33;;;21.40;;
19891;SDS011;10108;50.142;8.724;2022-09-03T09:14:44;20.30;;;18.30;;
19891;SDS011;10108;50.142;8.724;2022-09-03T09:22:56;14.80;;;12.88;;
19891;SDS011;10108;50.142;8.724;2022-09-03T09:25:27;13.68;;;12.27;;
19891;SDS011;10108;50.142;8.724;2022-09-03T09:27:58;12.30;;;11.10;;
19891;SDS011;10108;50.142;8.724;2022-09-03T09:30:31;12.15;;;10.90;;
19891;SDS011;10108;50.142;8.724;2022-09-03T09:32:57;14.40;;;10.82;;
19891;SDS011;10108;50.142;8.724;2022-09-03T09:35:25;12.40;;;10.18;;
19891;SDS011;10108;50.142;8.724;2022-09-03T09:37:55;11.35;;;10.15;;
19891;SDS011;10108;50.142;8.724;2022-09-03T09:40:26;13.43;;;11.05;;
19891;SDS011;10108;50.142;8.724;2022-09-03T09:43:16;12.73;;;9.93;;
19891;SDS011;10108;50.142;8.724;2022-09-03T09:45:46;12.00;;;9.85;;
19891;SDS011;10108;50.142;8.724;2022-09-03T09:53:48;12.23;;;9.95;;
19891;SDS011;10108;50.142;8.724;2022-09-03T09:56:28;12.40;;;9.45;;
19891;SDS011;10108;50.142;8.724;2022-09-03T09:59:03;12.02;;;9.52;;
19891;SDS011;10108;50.142;8.724;2022-09-03T10:01:35;13.52;;;9.35;;
19891;SDS011;10108;50.142;8.724;2022-09-03T10:06:55;11.52;;;8.35;;
19891;SDS011;10108;50.142;8.724;2022-09-03T10:09:30;12.57;;;8.35;;
19891;SDS011;10108;50.142;8.724;2022-09-03T10:12:16;9.60;;;7.97;;
19891;SDS011;10108;50.142;8.724;2022-09-03T10:20:47;10.32;;;7.90;;
19891;SDS011;10108;50.142;8.724;2022-09-03T10:23:28;9.30;;;7.60;;
19891;SDS011;10108;50.142;8.724;2022-09-03T10:28:35;11.57;;;8.30;;
19891;SDS011;10108;50.142;8.724;2022-09-03T10:34:05;10.93;;;8.30;;
19891;SDS011;10108;50.142;8.724;2022-09-03T10:36:39;11.70;;;8.10;;
19891;SDS011;10108;50.142;8.724;2022-09-03T10:42:35;11.98;;;8.07;;
19891;SDS011;10108;50.142;8.724;2022-09-03T10:50:51;10.30;;;8.00;;
19891;SDS011;10108;50.142;8.724;2022-09-03T10:56:14;11.65;;;7.78;;
19891;SDS011;10108;50.142;8.724;2022-09-03T11:01:38;10.88;;;8.15;;
19891;SDS011;10108;50.142;8.724;2022-09-03T11:04:27;12.52;;;8.20;;
19891;SDS011;10108;50.142;8.724;2022-09-03T11:06:59;10.20;;;8.20;;
19891;SDS011;10108;50.142;8.724;2022-09-03T11:09:34;11.15;;;7.97;;
19891;SDS011;10108;50.142;8.724;2022-09-03T11:12:12;10.68;;;8.02;;
19891;SDS011;10108;50.142;8.724;2022-09-03T11:14:52;12.98;;;8.45;;
19891;SDS011;10108;50.142;8.724;2022-09-03T11:17:25;10.38;;;8.45;;
19891;SDS011;10108;50.142;8.724;2022-09-03T11:20:05;11.02;;;8.25;;
19891;SDS011;10108;50.142;8.724;2022-09-03T11:22:43;12.88;;;8.10;;
19891;SDS011;10108;50.142;8.724;2022-09-03T11:25:13;10.88;;;8.48;;
19891;SDS011;10108;50.142;8.724;2022-09-03T11:30:09;11.15;;;8.55;;
19891;SDS011;10108;50.142;8.724;2022-09-03T11:35:15;10.52;;;8.60;;
19891;SDS011;10108;50.142;8.724;2022-09-03T11:37:53;12.43;;;8.45;;
19891;SDS011;10108;50.142;8.724;2022-09-03T11:40:53;9.35;;;7.85;;
19891;SDS011;10108;50.142;8.724;2022-09-03T11:43:25;9.48;;;7.68;;
19891;SDS011;10108;50.142;8.724;2022-09-03T11:48:53;10.38;;;7.57;;
19891;SDS011;10108;50.142;8.724;2022-09-03T11:53:56;9.35;;;7.68;;
19891;SDS011;10108;50.142;8.724;2022-09-03T11:56:23;10.25;;;8.20;;
19891;SDS011;10108;50.142;8.724;2022-09-03T12:02:01;9.95;;;7.43;;
19891;SDS011;10108;50.142;8.724;2022-09-03T12:04:36;10.35;;;7.53;;
19891;SDS011;10108;50.142;8.724;2022-09-03T12:10:02;10.43;;;7.53;;
19891;SDS011;10108;50.142;8.724;2022-09-03T12:16:05;9.85;;;7.95;;
19891;SDS011;10108;50.142;8.724;2022-09-03T12:18:54;9.00;;;7.47;;
19891;SDS011;10108;50.142;8.724;2022-09-03T12:21:25;12.18;;;7.25;;
19891;SDS011;10108;50.142;8.724;2022-09-03T12:23:51;11.25;;;7.35;;
19891;SDS011;10108;50.142;8.724;2022-09-03T12:26:20;9.48;;;7.50;;
19891;SDS011;10108;50.142;8.724;2022-09-03T12:28:50;10.27;;;7.47;;
19891;SDS011;10108;50.142;8.724;2022-09-03T12:31:22;10.40;;;7.40;;
19891;SDS011;10108;50.142;8.724;2022-09-03T12:33:51;10.98;;;6.85;;
19891;SDS011;10108;50.142;8.724;2022-09-03T12:36:20;9.32;;;6.95;;
19891;SDS011;10108;50.142;8.724;2022-09-03T12:38:47;9.52;;;7.28;;
19891;SDS011;10108;50.142;8.724;2022-09-03T12:43:55;10.13;;;7.50;;
19891;SDS011;10108;50.142;8.724;2022-09-03T12:46:27;8.65;;;7.03;;
19891;SDS011;10108;50.142;8.724;2022-09-03T12:49:04;8.07;;;6.95;;
19891;SDS011;10108;50.142;8.724;2022-09-03T12:51:39;9.82;;;7.20;;
19891;SDS011;10108;50.142;8.724;2022-09-03T12:54:07;11.38;;;7.60;;
19891;SDS011;10108;50.142;8.724;2022-09-03T12:56:44;8.88;;;7.43;;
19891;SDS011;10108;50.142;8.724;2022-09-03T12:59:16;9.75;;;7.47;;
19891;SDS011;10108;50.142;8.724;2022-09-03T13:01:44;9.07;;;7.45;;
19891;SDS011;10108;50.142;8.724;2022-09-03T13:04:24;9.20;;;6.95;;
19891;SDS011;10108;50.142;8.724;2022-09-03T13:09:37;10.43;;;7.30;;
19891;SDS011;10108;50.142;8.724;2022-09-03T13:12:05;8.40;;;7.20;;
19891;SDS011;10108;50.142;8.724;2022-09-03T13:14:41;8.48;;;6.75;;
19891;SDS011;10108;50.142;8.724;2022-09-03T13:17:13;8.68;;;7.20;;
19891;SDS011;10108;50.142;8.724;2022-09-03T13:19:55;8.25;;;6.78;;
19891;SDS011;10108;50.142;8.724;2022-09-03T13:25:47;9.10;;;6.97;;
19891;SDS011;10108;50.142;8.724;2022-09-03T13:34:16;10.73;;;6.85;;
19891;SDS011;10108;50.142;8.724;2022-09-03T13:36:47;10.93;;;6.55;;
19891;SDS011;10108;50.142;8.724;2022-09-03T13:39:29;12.88;;;7.28;;
19891;SDS011;10108;50.142;8.724;2022-09-03T13:42:15;10.57;;;7.00;;
19891;SDS011;10108;50.142;8.724;2022-09-03T13:47:57;10.30;;;6.85;;
19891;SDS011;10108;50.142;8.724;2022-09-03T13:56:34;12.60;;;6.75;;
19891;SDS011;10108;50.142;8.724;2022-09-03T14:02:04;8.00;;;6.65;;
19891;SDS011;10108;50.142;8.724;2022-09-03T14:04:46;9.30;;;6.65;;
19891;SDS011;10108;50.142;8.724;2022-09-03T14:10:18;9.75;;;7.18;;
19891;SDS011;10108;50.142;8.724;2022-09-03T14:16:06;11.85;;;6.72;;
19891;SDS011;10108;50.142;8.724;2022-09-03T14:18:58;9.68;;;7.03;;
19891;SDS011;10108;50.142;8.724;2022-09-03T14:26:55;9.88;;;7.10;;
19891;SDS011;10108;50.142;8.724;2022-09-03T14:29:29;10.65;;;7.15;;
19891;SDS011;10108;50.142;8.724;2022-09-03T14:37:31;9.32;;;7.60;;
19891;SDS011;10108;50.142;8.724;2022-09-03T14:53:46;8.35;;;6.18;;
19891;SDS011;10108;50.142;8.724;2022-09-03T15:00:11;13.50;;;6.60;;
19891;SDS011;10108;50.142;8.724;2022-09-03T15:05:44;8.55;;;6.60;;
19891;SDS011;10108;50.142;8.724;2022-09-03T15:08:35;9.90;;;6.55;;
19891;SDS011;10108;50.142;8.724;2022-09-03T15:11:29;10.07;;;6.20;;
19891;SDS011;10108;50.142;8.724;2022-09-03T15:14:09;9.10;;;6.80;;
19891;SDS011;10108;50.142;8.724;2022-09-03T15:19:35;7.80;;;6.40;;
19891;SDS011;10108;50.142;8.724;2022-09-03T15:30:44;8.48;;;6.47;;
19891;SDS011;10108;50.142;8.724;2022-09-03T15:33:15;8.25;;;6.40;;
19891;SDS011;10108;50.142;8.724;2022-09-03T15:41:06;8.60;;;6.18;;
19891;SDS011;10108;50.142;8.724;2022-09-03T15:43:42;9.23;;;6.20;;
19891;SDS011;10108;50.142;8.724;2022-09-03T15:46:33;7.07;;;6.38;;
19891;SDS011;10108;50.142;8.724;2022-09-03T15:49:05;8.60;;;6.47;;
19891;SDS011;10108;50.142;8.724;2022-09-03T15:51:41;7.90;;;6.10;;
19891;SDS011;10108;50.142;8.724;2022-09-03T15:54:22;11.85;;;6.43;;
19891;SDS011;10108;50.142;8.724;2022-09-03T15:57:08;7.93;;;6.25;;
19891;SDS011;10108;50.142;8.724;2022-09-03T16:02:24;6.68;;;5.85;;
19891;SDS011;10108;50.142;8.724;2022-09-03T16:12:40;7.35;;;6.00;;
19891;SDS011;10108;50.142;8.724;2022-09-03T16:15:37;10.52;;;6.63;;
19891;SDS011;10108;50.142;8.724;2022-09-03T16:20:55;12.60;;;6.10;;
19891;SDS011;10108;50.142;8.724;2022-09-03T16:23:31;8.63;;;6.38;;
19891;SDS011;10108;50.142;8.724;2022-09-03T16:26:07;10.52;;;6.30;;
19891;SDS011;10108;50.142;8.724;2022-09-03T16:31:14;8.10;;;6.45;;
19891;SDS011;10108;50.142;8.724;2022-09-03T16:39:02;9.95;;;6.20;;
19891;SDS011;10108;50.142;8.724;2022-09-03T16:44:43;10.30;;;6.70;;
19891;SDS011;10108;50.142;8.724;2022-09-03T16:53:00;8.90;;;6.38;;
19891;SDS011;10108;50.142;8.724;2022-09-03T17:03:49;9.07;;;6.88;;
19891;SDS011;10108;50.142;8.724;2022-09-03T17:06:50;9.73;;;6.80;;
19891;SDS011;10108;50.142;8.724;2022-09-03T17:12:07;7.97;;;6.55;;
19891;SDS011;10108;50.142;8.724;2022-09-03T17:14:58;10.27;;;6.75;;
19891;SDS011;10108;50.142;8.724;2022-09-03T17:20:48;8.63;;;6.60;;
19891;SDS011;10108;50.142;8.724;2022-09-03T17:26:00;9.68;;;6.80;;
19891;SDS011;10108;50.142;8.724;2022-09-03T17:31:47;7.30;;;6.07;;
19891;SDS011;10108;50.142;8.724;2022-09-03T17:38:00;6.75;;;5.93;;
19891;SDS011;10108;50.142;8.724;2022-09-03T17:46:27;6.90;;;5.75;;
19891;SDS011;10108;50.142;8.724;2022-09-03T17:49:23;6.72;;;5.65;;
19891;SDS011;10108;50.142;8.724;2022-09-03T17:54:56;6.32;;;5.25;;
19891;SDS011;10108;50.142;8.724;2022-09-03T17:57:28;6.32;;;5.60;;
19891;SDS011;10108;50.142;8.724;2022-09-03T17:59:59;8.75;;;5.85;;
19891;SDS011;10108;50.142;8.724;2022-09-03T18:07:55;7.43;;;5.47;;
19891;SDS011;10108;50.142;8.724;2022-09-03T18:10:38;7.18;;;5.10;;
19891;SDS011;10108;50.142;8.724;2022-09-03T18:13:38;6.32;;;5.18;;
19891;SDS011;10108;50.142;8.724;2022-09-03T18:16:17;6.32;;;5.10;;
19891;SDS011;10108;50.142;8.724;2022-09-03T18:18:51;6.28;;;5.18;;
19891;SDS011;10108;50.142;8.724;2022-09-03T18:21:21;5.60;;;5.00;;
19891;SDS011;10108;50.142;8.724;2022-09-03T18:24:28;6.15;;;5.30;;
19891;SDS011;10108;50.142;8.724;2022-09-03T18:27:22;6.88;;;5.10;;
19891;SDS011;10108;50.142;8.724;2022-09-03T18:30:16;6.32;;;5.30;;
19891;SDS011;10108;50.142;8.724;2022-09-03T18:33:02;5.95;;;4.97;;
19891;SDS011;10108;50.142;8.724;2022-09-03T18:35:47;9.57;;;5.40;;
19891;SDS011;10108;50.142;8.724;2022-09-03T18:38:33;6.30;;;5.00;;
19891;SDS011;10108;50.142;8.724;2022-09-03T18:41:29;10.95;;;7.18;;
19891;SDS011;10108;50.142;8.724;2022-09-03T18:47:51;10.15;;;6.65;;
19891;SDS011;10108;50.142;8.724;2022-09-03T18:51:05;11.93;;;6.80;;
19891;SDS011;10108;50.142;8.724;2022-09-03T18:56:47;7.78;;;5.60;;
19891;SDS011;10108;50.142;8.724;2022-09-03T19:22:11;7.30;;;5.55;;
19891;SDS011;10108;50.142;8.724;2022-09-03T19:25:01;7.68;;;5.30;;
19891;SDS011;10108;50.142;8.724;2022-09-03T19:28:03;6.28;;;5.25;;
19891;SDS011;10108;50.142;8.724;2022-09-03T19:31:04;7.03;;;5.20;;
19891;SDS011;10108;50.142;8.724;2022-09-03T19:34:14;6.63;;;5.10;;
19891;SDS011;10108;50.142;8.724;2022-09-03T19:37:25;6.65;;;5.20;;
19891;SDS011;10108;50.142;8.724;2022-09-03T19:46:50;5.90;;;5.03;;
19891;SDS011;10108;50.142;8.724;2022-09-03T19:52:50;6.45;;;5.10;;
19891;SDS011;10108;50.142;8.724;2022-09-03T19:55:52;6.93;;;5.00;;
19891;SDS011;10108;50.142;8.724;2022-09-03T19:58:48;7.13;;;5.15;;
19891;SDS011;10108;50.142;8.724;2022-09-03T20:01:38;6.50;;;5.00;;
19891;SDS011;10108;50.142;8.724;2022-09-03T20:04:32;7.85;;;5.22;;
19891;SDS011;10108;50.142;8.724;2022-09-03T20:07:19;6.22;;;5.00;;
19891;SDS011;10108;50.142;8.724;2022-09-03T20:10:07;6.30;;;5.05;;
19891;SDS011;10108;50.142;8.724;2022-09-03T20:13:33;5.30;;;4.70;;
19891;SDS011;10108;50.142;8.724;2022-09-03T20:15:42;7.72;;;5.18;;
19891;SDS011;10108;50.142;8.724;2022-09-03T20:21:27;5.88;;;5.00;;
19891;SDS011;10108;50.142;8.724;2022-09-03T20:29:29;6.18;;;4.72;;
19891;SDS011;10108;50.142;8.724;2022-09-03T20:32:04;6.82;;;4.90;;
19891;SDS011;10108;50.142;8.724;2022-09-03T20:34:49;6.40;;;4.80;;
19891;SDS011;10108;50.142;8.724;2022-09-03T20:40:20;6.53;;;4.70;;
19891;SDS011;10108;50.142;8.724;2022-09-03T20:56:25;6.32;;;4.82;;
19891;SDS011;10108;50.142;8.724;2022-09-03T20:59:00;6.35;;;5.07;;
19891;SDS011;10108;50.142;8.724;2022-09-03T21:01:50;6.13;;;4.85;;
19891;SDS011;10108;50.142;8.724;2022-09-03T21:10:11;6.30;;;4.85;;